createdAt,value
2019-05-19T00:02:13.853Z,99443.45
2019-05-19T00:04:42.016Z,99438.02
2019-05-19T00:07:10.202Z,99440.16
2019-05-19T00:09:38.346Z,99442.19
2019-05-19T00:12:06.478Z,99440.39
2019-05-19T00:14:34.678Z,99440.58
2019-05-19T00:17:02.818Z,99440.81
2019-05-19T00:19:30.995Z,99443.25
2019-05-19T00:21:59.165Z,99435.87
2019-05-19T00:24:27.309Z,99436.11
2019-05-19T00:26:55.620Z,99429.65
2019-05-19T00:29:23.775Z,99426.05
2019-05-19T00:31:51.959Z,99428.48
2019-05-19T00:34:20.095Z,99429.98
2019-05-19T00:36:48.223Z,99437.78
2019-05-19T00:39:16.383Z,99439.36
2019-05-19T00:41:44.573Z,99429.91
2019-05-19T00:44:12.761Z,99428.38
2019-05-19T00:46:41.054Z,99431.54
2019-05-19T00:49:09.273Z,99424.67
2019-05-19T00:51:37.913Z,99426.71
2019-05-19T00:54:06.063Z,99426.06
2019-05-19T00:56:34.795Z,99422.78
2019-05-19T00:59:05.059Z,99424.05
2019-05-19T01:01:33.243Z,99421.15
2019-05-19T01:04:01.403Z,99417.37
2019-05-19T01:06:29.595Z,99414.14
2019-05-19T01:08:57.779Z,99418.45
2019-05-19T01:11:25.940Z,99414.05
2019-05-19T01:13:54.089Z,99420.81
2019-05-19T01:16:22.265Z,99415.39
2019-05-19T01:18:50.410Z,99411.99
2019-05-19T01:21:18.763Z,99417.76
2019-05-19T01:23:46.916Z,99416.87
2019-05-19T01:26:15.126Z,99413.34
2019-05-19T01:28:43.285Z,99407.42
2019-05-19T01:31:11.459Z,99407.58
2019-05-19T01:33:39.725Z,99406.16
2019-05-19T01:36:07.891Z,99397.40
2019-05-19T01:38:36.055Z,99394.41
2019-05-19T01:41:04.254Z,99388.45
2019-05-19T01:43:32.459Z,99384.75
2019-05-19T01:46:00.715Z,99386.70
2019-05-19T01:48:28.863Z,99390.08
2019-05-19T01:50:56.987Z,99388.64
2019-05-19T01:53:25.139Z,99382.15
2019-05-19T01:55:53.295Z,99387.18
2019-05-19T01:58:21.417Z,99385.81
2019-05-19T02:00:49.536Z,99383.58
2019-05-19T02:03:17.748Z,99381.50
2019-05-19T02:05:45.897Z,99377.48
2019-05-19T02:08:14.050Z,99374.81
2019-05-19T02:10:42.150Z,99375.02
2019-05-19T02:13:10.263Z,99376.19
2019-05-19T02:15:38.351Z,99377.50
2019-05-19T02:18:06.506Z,99370.97
2019-05-19T02:20:34.701Z,99371.83
2019-05-19T02:23:02.858Z,99368.90
2019-05-19T02:25:30.987Z,99366.07
2019-05-19T02:27:59.146Z,99367.44
2019-05-19T02:30:27.280Z,99306.57
2019-05-19T02:32:56.832Z,99369.37
2019-05-19T02:35:24.952Z,99369.51
2019-05-19T02:37:53.058Z,99108.43
2019-05-19T02:40:21.189Z,99366.48
2019-05-19T02:42:51.206Z,99364.42
2019-05-19T02:45:19.514Z,99357.73
2019-05-19T02:47:49.791Z,99361.86
2019-05-19T02:50:18.021Z,99359.92
2019-05-19T02:52:49.128Z,99358.11
2019-05-19T02:55:19.416Z,99366.61
2019-05-19T02:57:48.889Z,99362.98
2019-05-19T03:00:17.124Z,99362.77
2019-05-19T03:02:45.254Z,99367.31
2019-05-19T03:05:13.606Z,99369.98
2019-05-19T03:07:41.747Z,99374.69
2019-05-19T03:10:10.004Z,99372.78
2019-05-19T03:12:38.160Z,99366.35
2019-05-19T03:15:06.475Z,99366.57
2019-05-19T03:17:35.352Z,99366.16
2019-05-19T03:20:03.461Z,99367.96
2019-05-19T03:22:31.635Z,99366.58
2019-05-19T03:24:59.732Z,99374.22
2019-05-19T03:27:27.828Z,99369.58
2019-05-19T03:29:58.415Z,99368.50
2019-05-19T03:32:32.251Z,99375.10
2019-05-19T03:35:00.439Z,99375.77
2019-05-19T03:37:28.604Z,99375.51
2019-05-19T03:39:56.738Z,99378.66
2019-05-19T03:42:24.859Z,99373.25
2019-05-19T03:44:53.009Z,99380.80
2019-05-19T03:47:21.188Z,99383.35
2019-05-19T03:49:49.309Z,99377.91
2019-05-19T03:52:17.410Z,99382.23
2019-05-19T03:54:45.491Z,99387.26
2019-05-19T03:57:13.667Z,99393.86
2019-05-19T03:59:41.824Z,99399.14
2019-05-19T04:02:09.967Z,99387.56
2019-05-19T04:04:38.111Z,99398.83
2019-05-19T04:07:06.249Z,99396.84
2019-05-19T04:09:34.356Z,99394.36
2019-05-19T04:12:02.547Z,99401.72
2019-05-19T04:14:30.786Z,99406.95
2019-05-19T04:16:58.900Z,99411.04
2019-05-19T04:19:27.012Z,99408.52
2019-05-19T04:21:55.206Z,99409.95
2019-05-19T04:24:23.353Z,99411.17
2019-05-19T04:26:51.543Z,99411.38
2019-05-19T04:29:19.729Z,99414.80
2019-05-19T04:31:47.820Z,99417.24
2019-05-19T04:34:15.977Z,99408.57
2019-05-19T04:36:44.139Z,99411.38
2019-05-19T04:39:12.240Z,99411.57
2019-05-19T04:41:40.561Z,99416.13
2019-05-19T04:44:08.655Z,99417.24
2019-05-19T04:46:36.783Z,99411.80
2019-05-19T04:49:04.938Z,99412.46
2019-05-19T04:51:33.117Z,99416.17
2019-05-19T04:54:01.264Z,99405.78
2019-05-19T04:56:29.388Z,99409.16
2019-05-19T04:58:57.477Z,99413.42
2019-05-19T05:01:25.603Z,99412.39
2019-05-19T05:03:53.876Z,99418.34
2019-05-19T05:06:21.989Z,99414.06
2019-05-19T05:08:50.109Z,99406.41
2019-05-19T05:11:18.240Z,99411.22
2019-05-19T05:13:46.379Z,99417.54
2019-05-19T05:16:14.518Z,99410.41
2019-05-19T05:18:42.678Z,99410.84
2019-05-19T05:21:10.773Z,99408.70
2019-05-19T05:23:39.011Z,99405.76
2019-05-19T05:26:07.119Z,99408.64
2019-05-19T05:28:35.250Z,99404.88
2019-05-19T05:31:03.383Z,99403.55
2019-05-19T05:33:31.502Z,99404.78
2019-05-19T05:35:59.669Z,99401.66
2019-05-19T05:38:27.788Z,99399.11
2019-05-19T05:40:56.005Z,99396.43
2019-05-19T05:43:24.121Z,99395.48
2019-05-19T05:45:52.273Z,99399.08
2019-05-19T05:48:20.411Z,99392.59
2019-05-19T05:50:48.515Z,99394.11
2019-05-19T05:53:16.686Z,99396.61
2019-05-19T05:55:44.899Z,99391.91
2019-05-19T05:58:13.101Z,99389.84
2019-05-19T06:00:41.213Z,99392.28
2019-05-19T06:03:09.343Z,99398.89
2019-05-19T06:05:37.425Z,99396.41
2019-05-19T06:08:05.564Z,99392.98
2019-05-19T06:10:33.750Z,99388.59
2019-05-19T06:13:01.926Z,99389.91
2019-05-19T06:15:30.162Z,99392.59
2019-05-19T06:18:01.278Z,99391.27
2019-05-19T06:20:29.465Z,99393.67
2019-05-19T06:22:57.990Z,99390.91
2019-05-19T06:25:26.501Z,99391.69
2019-05-19T06:27:54.747Z,99383.75
2019-05-19T06:30:22.965Z,99387.42
2019-05-19T06:32:53.006Z,99380.66
2019-05-19T06:35:21.215Z,99376.75
2019-05-19T06:37:49.374Z,99375.05
2019-05-19T06:40:17.527Z,99374.60
2019-05-19T06:42:45.724Z,99369.89
2019-05-19T06:45:15.654Z,99364.98
2019-05-19T06:47:43.816Z,99365.25
2019-05-19T06:50:12.248Z,99363.92
2019-05-19T06:52:40.524Z,99362.66
2019-05-19T06:55:08.870Z,99368.15
2019-05-19T06:57:37.059Z,99367.56
2019-05-19T07:00:06.422Z,99372.37
2019-05-19T07:02:34.695Z,99366.46
2019-05-19T07:05:03.043Z,99364.77
2019-05-19T07:07:31.146Z,99365.43
2019-05-19T07:09:59.259Z,99365.07
2019-05-19T07:12:27.409Z,99359.42
2019-05-19T07:14:55.549Z,99365.35
2019-05-19T07:17:23.756Z,99360.30
2019-05-19T07:19:51.994Z,99358.49
2019-05-19T07:22:20.135Z,99359.42
2019-05-19T07:24:48.294Z,99355.29
2019-05-19T07:27:16.437Z,99358.09
2019-05-19T07:29:44.647Z,99353.67
2019-05-19T07:32:12.830Z,99355.38
2019-05-19T07:34:40.977Z,99347.09
2019-05-19T07:37:09.078Z,99348.22
2019-05-19T07:39:37.284Z,99352.72
2019-05-19T07:42:05.462Z,99345.95
2019-05-19T07:44:33.596Z,99352.45
2019-05-19T07:47:01.730Z,99343.22
2019-05-19T07:49:29.945Z,99345.19
2019-05-19T07:51:58.094Z,99341.74
2019-05-19T07:54:26.300Z,99332.09
2019-05-19T07:56:54.438Z,99338.18
2019-05-19T07:59:22.584Z,99339.09
2019-05-19T08:01:50.811Z,99331.84
2019-05-19T08:04:19.067Z,99333.77
2019-05-19T08:06:47.256Z,99333.04
2019-05-19T08:09:15.546Z,99335.80
2019-05-19T08:11:43.706Z,99335.95
2019-05-19T08:14:11.934Z,99338.69
2019-05-19T08:16:40.166Z,99335.56
2019-05-19T08:19:08.326Z,99330.77
2019-05-19T08:21:36.491Z,99326.98
2019-05-19T08:24:04.783Z,99327.07
2019-05-19T08:26:33.024Z,99326.97
2019-05-19T08:29:01.192Z,99327.34
2019-05-19T08:31:29.394Z,99326.61
2019-05-19T08:33:57.799Z,99323.30
2019-05-19T08:36:26.081Z,99331.88
2019-05-19T08:38:54.271Z,99330.53
2019-05-19T08:41:22.418Z,99331.66
2019-05-19T08:43:53.264Z,99330.18
2019-05-19T08:46:20.630Z,99333.47
2019-05-19T08:48:48.785Z,99331.03
2019-05-19T08:51:16.965Z,99335.77
2019-05-19T08:53:45.076Z,99338.14
2019-05-19T08:56:13.232Z,99331.13
2019-05-19T08:58:41.389Z,99334.45
2019-05-19T09:01:09.553Z,99339.00
2019-05-19T09:03:37.859Z,99332.02
2019-05-19T09:06:06.020Z,99339.67
2019-05-19T09:08:34.217Z,99333.27
2019-05-19T09:11:02.367Z,99332.38
2019-05-19T09:13:30.798Z,99328.66
2019-05-19T09:15:58.999Z,99336.73
2019-05-19T09:18:27.223Z,99331.28
2019-05-19T09:20:55.604Z,99330.14
2019-05-19T09:23:23.829Z,99320.83
2019-05-19T09:25:52.091Z,99321.00
2019-05-19T09:28:20.216Z,99316.39
2019-05-19T09:30:48.383Z,99316.50
2019-05-19T09:33:16.646Z,99313.23
2019-05-19T09:35:44.857Z,99312.16
2019-05-19T09:38:13.072Z,99305.65
2019-05-19T09:40:41.280Z,99316.15
2019-05-19T09:43:09.422Z,99304.67
2019-05-19T09:45:37.552Z,99312.28
2019-05-19T09:48:05.699Z,99309.50
2019-05-19T09:50:33.883Z,99304.25
2019-05-19T09:53:02.208Z,99306.31
2019-05-19T09:55:30.428Z,99297.78
2019-05-19T09:57:58.587Z,99297.42
2019-05-19T10:00:26.705Z,99303.10
2019-05-19T10:02:54.952Z,99296.17
2019-05-19T10:05:23.132Z,99293.30
2019-05-19T10:07:51.346Z,99292.37
2019-05-19T10:10:42.678Z,99289.58
2019-05-19T10:13:10.868Z,99292.27
2019-05-19T10:15:39.104Z,99292.87
2019-05-19T10:18:07.655Z,99294.94
2019-05-19T10:20:35.851Z,99283.45
2019-05-19T10:23:04.034Z,99288.34
2019-05-19T10:25:32.172Z,99290.77
2019-05-19T10:28:00.400Z,99288.62
2019-05-19T10:30:28.598Z,99288.50
2019-05-19T10:32:58.888Z,99286.16
2019-05-19T10:35:27.230Z,99285.42
2019-05-19T10:37:55.474Z,99279.14
2019-05-19T10:40:23.729Z,99277.77
2019-05-19T10:42:51.900Z,99273.70
2019-05-19T10:45:20.043Z,99276.84
2019-05-19T10:47:48.171Z,99285.72
2019-05-19T10:50:16.362Z,99278.89
2019-05-19T10:52:44.623Z,99274.25
2019-05-19T10:55:13.035Z,99270.00
2019-05-19T10:57:41.254Z,99265.11
2019-05-19T11:00:09.747Z,99267.75
2019-05-19T11:02:37.896Z,99268.47
2019-05-19T11:05:06.812Z,99262.66
2019-05-19T11:07:34.994Z,99258.20
2019-05-19T11:10:03.102Z,99263.13
2019-05-19T11:12:31.316Z,99263.65
2019-05-19T11:14:59.526Z,99264.59
2019-05-19T11:17:27.798Z,99257.19
2019-05-19T11:19:56.023Z,99260.42
2019-05-19T11:22:24.258Z,99266.39
2019-05-19T11:24:52.423Z,99260.34
2019-05-19T11:27:20.706Z,99261.63
2019-05-19T11:29:48.941Z,99261.20
2019-05-19T11:32:17.142Z,99255.98
2019-05-19T11:34:45.266Z,99257.51
2019-05-19T11:37:13.410Z,99249.86
2019-05-19T11:39:41.644Z,99247.27
2019-05-19T11:42:09.836Z,99252.13
2019-05-19T11:44:38.064Z,99256.73
2019-05-19T11:47:06.209Z,99250.77
2019-05-19T11:49:34.482Z,99251.22
2019-05-19T11:52:02.726Z,99250.66
2019-05-19T11:54:30.893Z,99253.64
2019-05-19T11:56:59.109Z,99241.75
2019-05-19T11:59:27.339Z,99246.53
2019-05-19T12:01:56.034Z,99235.03
2019-05-19T12:04:24.296Z,99237.13
2019-05-19T12:06:52.493Z,99243.55
2019-05-19T12:09:20.754Z,99242.66
2019-05-19T12:11:48.967Z,99243.05
2019-05-19T12:14:17.319Z,99240.81
2019-05-19T12:16:45.548Z,99236.00
2019-05-19T12:19:13.912Z,99237.30
2019-05-19T12:21:42.088Z,99240.70
2019-05-19T12:24:10.332Z,99236.56
2019-05-19T12:26:38.516Z,99236.14
2019-05-19T12:29:06.687Z,99234.01
2019-05-19T12:31:34.854Z,99232.56
2019-05-19T12:34:03.033Z,99230.95
2019-05-19T12:36:31.344Z,99227.97
2019-05-19T12:38:59.579Z,99226.13
2019-05-19T12:41:27.854Z,99229.89
2019-05-19T12:43:56.108Z,99229.89
2019-05-19T12:46:24.318Z,99233.72
2019-05-19T12:48:52.595Z,99229.50
2019-05-19T12:51:20.807Z,99226.05
2019-05-19T12:53:49.019Z,99232.64
2019-05-19T12:56:17.223Z,99227.11
2019-05-19T12:58:45.495Z,99237.73
2019-05-19T13:01:13.685Z,99222.66
2019-05-19T13:03:41.933Z,99221.89
2019-05-19T13:06:10.257Z,99225.77
2019-05-19T13:08:38.379Z,99222.36
2019-05-19T13:11:06.586Z,99214.91
2019-05-19T13:13:34.817Z,99223.80
2019-05-19T13:16:03.145Z,99209.63
2019-05-19T13:18:31.315Z,99210.39
2019-05-19T13:20:59.615Z,99215.23
2019-05-19T13:23:27.923Z,99208.34
2019-05-19T13:25:56.137Z,99203.55
2019-05-19T13:28:24.358Z,99209.14
2019-05-19T13:30:52.508Z,99201.42
2019-05-19T13:33:20.763Z,99200.77
2019-05-19T13:35:48.935Z,99197.97
2019-05-19T13:38:17.155Z,99205.16
2019-05-19T13:40:45.358Z,99206.30
2019-05-19T13:43:13.534Z,99200.03
2019-05-19T13:45:41.734Z,99210.61
2019-05-19T13:48:09.868Z,99210.36
2019-05-19T13:50:38.052Z,99204.47
2019-05-19T13:53:06.270Z,99201.30
2019-05-19T13:55:34.447Z,99202.20
2019-05-19T13:58:03.613Z,99199.48
2019-05-19T14:00:31.860Z,99201.66
2019-05-19T14:03:00.094Z,99206.05
2019-05-19T14:05:28.337Z,99201.84
2019-05-19T14:07:56.741Z,99202.61
2019-05-19T14:10:24.963Z,99194.38
2019-05-19T14:12:53.181Z,99203.69
2019-05-19T14:15:21.453Z,99196.64
2019-05-19T14:17:49.609Z,99193.69
2019-05-19T14:20:18.046Z,99191.05
2019-05-19T14:22:46.263Z,99183.58
2019-05-19T14:25:15.896Z,99184.13
2019-05-19T14:27:44.068Z,99180.81
2019-05-19T14:30:12.910Z,99183.19
2019-05-19T14:32:41.233Z,99188.73
2019-05-19T14:35:09.565Z,99183.16
2019-05-19T14:37:37.832Z,99185.48
2019-05-19T14:40:07.645Z,99189.98
2019-05-19T14:42:50.052Z,99183.36
2019-05-19T14:45:19.412Z,99176.33
2019-05-19T14:47:47.562Z,99190.78
2019-05-19T14:50:16.458Z,99184.48
2019-05-19T14:52:44.614Z,99176.38
2019-05-19T14:55:13.425Z,99174.22
2019-05-19T14:57:45.314Z,99179.09
2019-05-19T15:00:12.129Z,99174.41
2019-05-19T15:02:39.410Z,99180.05
2019-05-19T15:05:07.575Z,99176.52
2019-05-19T15:07:35.788Z,99182.09
2019-05-19T15:10:03.977Z,99183.83
2019-05-19T15:12:32.221Z,99183.69
2019-05-19T15:15:00.559Z,99177.57
2019-05-19T15:17:28.748Z,99181.15
2019-05-19T15:19:57.031Z,99175.66
2019-05-19T15:22:25.200Z,99175.64
2019-05-19T15:24:53.417Z,99168.11
2019-05-19T15:27:21.709Z,99158.61
2019-05-19T15:29:49.886Z,99159.17
2019-05-19T15:32:18.099Z,99159.14
2019-05-19T15:34:46.339Z,99160.61
2019-05-19T15:37:14.543Z,99163.78
2019-05-19T15:39:42.734Z,99161.63
2019-05-19T15:42:10.964Z,99164.70
2019-05-19T15:44:39.190Z,99164.84
2019-05-19T15:47:07.382Z,99156.55
2019-05-19T15:49:35.522Z,99157.78
2019-05-19T15:52:05.545Z,99151.41
2019-05-19T15:54:33.701Z,99147.03
2019-05-19T15:57:01.911Z,99147.03
2019-05-19T15:59:30.092Z,99157.30
2019-05-19T16:01:58.260Z,99147.84
2019-05-19T16:04:26.513Z,99149.22
2019-05-19T16:06:54.687Z,99141.09
2019-05-19T16:09:22.900Z,99139.58
2019-05-19T16:11:51.067Z,99138.73
2019-05-19T16:14:19.215Z,99144.61
2019-05-19T16:16:47.453Z,99137.22
2019-05-19T16:19:15.664Z,99131.44
2019-05-19T16:21:43.887Z,99139.45
2019-05-19T16:24:12.113Z,99144.92
2019-05-19T16:26:40.293Z,99134.56
2019-05-19T16:29:08.480Z,99140.84
2019-05-19T16:31:36.628Z,99135.11
2019-05-19T16:34:04.811Z,99133.20
2019-05-19T16:36:33.016Z,99127.05
2019-05-19T16:39:01.202Z,99127.62
2019-05-19T16:41:29.411Z,99134.58
2019-05-19T16:43:57.739Z,99131.69
2019-05-19T16:46:26.076Z,99132.93
2019-05-19T16:48:54.300Z,99136.70
2019-05-19T16:51:22.517Z,99140.49
2019-05-19T16:53:52.842Z,99130.50
2019-05-19T16:56:21.054Z,99134.36
2019-05-19T16:58:49.335Z,99133.83
2019-05-19T17:01:19.992Z,99138.38
2019-05-19T17:03:47.427Z,99131.60
2019-05-19T17:06:15.769Z,99131.99
2019-05-19T17:08:43.985Z,99133.25
2019-05-19T17:11:18.413Z,99122.55
2019-05-19T17:13:42.238Z,99122.55
2019-05-19T17:16:10.477Z,99127.77
2019-05-19T17:18:38.680Z,99122.95
2019-05-19T17:21:06.913Z,99116.59
2019-05-19T17:23:35.165Z,99116.47
2019-05-19T17:26:03.410Z,99118.05
2019-05-19T17:28:31.608Z,99123.08
2019-05-19T17:30:59.972Z,99127.45
2019-05-19T17:33:28.276Z,99120.98
2019-05-19T17:35:56.560Z,99124.31
2019-05-19T17:38:24.755Z,99130.31
2019-05-19T17:40:52.974Z,99131.58
2019-05-19T17:43:21.196Z,99132.27
2019-05-19T17:45:49.362Z,99125.41
2019-05-19T17:48:26.101Z,99136.78
2019-05-19T17:50:47.456Z,99132.34
2019-05-19T17:53:15.678Z,99139.11
2019-05-19T17:55:45.050Z,99141.23
2019-05-19T17:58:12.287Z,99139.64
2019-05-19T18:00:42.004Z,99138.59
2019-05-19T18:03:10.614Z,99134.95
2019-05-19T18:05:39.179Z,99142.78
2019-05-19T18:08:07.409Z,99141.65
2019-05-19T18:10:35.644Z,99140.63
2019-05-19T18:13:03.857Z,99143.89
2019-05-19T18:15:32.612Z,99142.92
2019-05-19T18:18:00.730Z,99143.46
2019-05-19T18:20:28.933Z,99145.01
2019-05-19T18:22:57.595Z,99148.41
2019-05-19T18:25:25.792Z,99144.54
2019-05-19T18:27:53.999Z,99141.81
2019-05-19T18:30:22.254Z,99151.20
2019-05-19T18:32:50.428Z,99142.92
2019-05-19T18:35:18.580Z,99149.08
2019-05-19T18:37:46.846Z,99157.80
2019-05-19T18:40:15.016Z,99154.72
2019-05-19T18:42:43.195Z,99144.77
2019-05-19T18:45:11.325Z,99151.31
2019-05-19T18:47:39.885Z,99153.97
2019-05-19T18:50:08.255Z,99161.84
2019-05-19T18:52:36.533Z,99168.44
2019-05-19T18:55:05.073Z,99162.14
2019-05-19T18:57:33.274Z,99174.08
2019-05-19T19:00:01.593Z,99173.69
2019-05-19T19:02:29.846Z,99177.92
2019-05-19T19:04:57.999Z,99179.47
2019-05-19T19:07:45.120Z,99184.96
2019-05-19T19:10:13.303Z,99190.50
2019-05-19T19:12:41.500Z,99187.54
2019-05-19T19:15:09.679Z,99183.44
2019-05-19T19:17:39.163Z,99184.02
2019-05-19T19:20:07.436Z,99188.88
2019-05-19T19:22:35.606Z,99187.02
2019-05-19T19:25:03.853Z,99188.69
2019-05-19T19:27:32.149Z,99192.49
2019-05-19T19:30:03.364Z,99194.23
2019-05-19T19:32:30.193Z,99191.86
2019-05-19T19:34:58.343Z,99199.18
2019-05-19T19:37:26.543Z,99199.50
2019-05-19T19:39:54.716Z,99200.73
2019-05-19T19:42:23.217Z,99208.07
2019-05-19T19:44:51.390Z,99212.16
2019-05-19T19:47:19.595Z,99208.05
2019-05-19T19:49:47.748Z,99211.30
2019-05-19T19:52:15.953Z,99212.16
2019-05-19T19:54:44.079Z,99214.88
2019-05-19T19:57:12.259Z,99215.19
2019-05-19T19:59:40.436Z,99213.78
2019-05-19T20:02:08.573Z,99214.73
2019-05-19T20:04:36.833Z,99213.87
2019-05-19T20:07:04.985Z,99215.31
2019-05-19T20:09:33.491Z,99221.70
2019-05-19T20:12:01.611Z,99223.19
2019-05-19T20:14:29.809Z,99216.77
2019-05-19T20:16:58.041Z,99225.25
2019-05-19T20:19:26.436Z,99224.45
2019-05-19T20:21:54.753Z,99224.37
2019-05-19T20:24:22.945Z,99224.82
2019-05-19T20:26:51.087Z,99221.94
2019-05-19T20:29:19.173Z,99229.86
2019-05-19T20:31:47.283Z,99233.17
2019-05-19T20:34:15.524Z,99238.31
2019-05-19T20:36:43.646Z,99238.42
2019-05-19T20:39:11.777Z,99230.88
2019-05-19T20:41:39.973Z,99230.38
2019-05-19T20:44:08.085Z,99232.84
2019-05-19T20:46:36.243Z,99231.77
2019-05-19T20:49:04.342Z,99228.51
2019-05-19T20:51:34.092Z,99231.48
2019-05-19T20:54:02.339Z,99230.66
2019-05-19T20:56:30.625Z,99223.45
2019-05-19T20:58:58.819Z,99225.48
2019-05-19T21:01:27.026Z,99226.44
2019-05-19T21:03:55.270Z,99228.81
2019-05-19T21:06:23.439Z,99227.92
2019-05-19T21:08:51.679Z,99228.36
2019-05-19T21:11:19.847Z,99237.03
2019-05-19T21:13:48.166Z,99232.71
2019-05-19T21:16:16.355Z,99240.20
2019-05-19T21:18:44.582Z,99236.15
2019-05-19T21:21:12.798Z,99244.42
2019-05-19T21:23:41.052Z,99242.41
2019-05-19T21:26:09.227Z,99237.60
2019-05-19T21:28:37.434Z,99240.89
2019-05-19T21:31:06.417Z,99236.52
2019-05-19T21:33:34.675Z,99236.94
2019-05-19T21:36:02.883Z,99238.87
2019-05-19T21:38:31.036Z,99235.15
2019-05-19T21:40:59.321Z,99236.41
2019-05-19T21:43:27.562Z,99238.94
2019-05-19T21:45:55.705Z,99231.77
2019-05-19T21:48:34.212Z,99230.31
2019-05-19T21:51:02.526Z,99229.23
2019-05-19T21:53:30.729Z,99236.52
2019-05-19T21:55:59.700Z,99234.25
2019-05-19T21:58:27.816Z,99233.28
2019-05-19T22:00:55.935Z,99231.71
2019-05-19T22:03:24.064Z,99236.09
2019-05-19T22:05:53.671Z,99233.44
2019-05-19T22:08:22.533Z,99242.80
2019-05-19T22:10:50.723Z,99240.48
2019-05-19T22:13:19.151Z,99240.52
2019-05-19T22:15:47.360Z,99245.20
2019-05-19T22:18:15.726Z,99247.83
2019-05-19T22:20:43.894Z,99245.41
2019-05-19T22:23:12.097Z,99247.88
2019-05-19T22:25:40.327Z,99249.62
2019-05-19T22:28:08.526Z,99253.59
2019-05-19T22:30:36.652Z,99253.59
2019-05-19T22:33:04.994Z,99260.50
2019-05-19T22:35:33.086Z,99258.06
2019-05-19T22:38:01.196Z,99263.46
2019-05-19T22:40:29.460Z,99267.16
2019-05-19T22:42:57.579Z,99267.78
2019-05-19T22:45:25.845Z,99270.70
2019-05-19T22:47:53.979Z,99267.02
2019-05-19T22:50:22.194Z,99269.87
2019-05-19T22:52:50.333Z,99264.45
2019-05-19T22:55:18.742Z,99261.75
2019-05-19T22:57:46.893Z,99267.34
2019-05-19T23:00:16.345Z,99257.92
2019-05-19T23:02:44.581Z,99254.50
2019-05-19T23:05:12.938Z,99252.89
2019-05-19T23:07:41.040Z,99253.14
2019-05-19T23:10:09.515Z,99255.10
2019-05-19T23:12:37.639Z,99252.76
2019-05-19T23:15:06.897Z,99252.52
2019-05-19T23:17:35.074Z,99250.67
2019-05-19T23:20:03.248Z,99253.73
2019-05-19T23:22:31.325Z,99248.44
2019-05-19T23:24:59.503Z,99247.09
2019-05-19T23:27:27.671Z,99248.89
2019-05-19T23:29:55.936Z,99246.59
2019-05-19T23:32:24.246Z,99253.20
2019-05-19T23:34:52.372Z,99246.30
2019-05-19T23:37:20.558Z,99246.28
2019-05-19T23:39:48.776Z,99243.34
2019-05-19T23:42:16.887Z,99242.80
2019-05-19T23:44:45.112Z,99243.14
2019-05-19T23:47:13.372Z,99239.45
2019-05-19T23:49:41.501Z,99236.69
2019-05-19T23:52:09.707Z,99237.07
2019-05-19T23:54:38.040Z,99223.87
2019-05-19T23:57:06.157Z,99233.22
2019-05-19T23:59:34.343Z,99223.86
